YM Neptune — 9HA2017 — position and weather

sailwx.info

Track history (hours):
 
Tides and Currents Weather Stations Pressure Air Temp Water Temp Dewpoint Dewpoint Depression Visibility Wind Speed Wind Dir Waves Ship Positions

YM Neptune

Last reported at 2018-Feb-18 09:24 UTC. Time now 2018-Feb-18 20:24 UTC.
Position N 38°40' E 015°15'.

Length 119 m; draft 6.3 m.

Type: Ship (hazmat cat A). MMSI: 249813000.

Date/timePositionNaut miles runAvg speedWind from/ knotsBaromVisibWave heightAir tempDewpointWater temp
2018-Feb-18 09:24N 38°40' E 015°15'510.9
2018-Feb-18 08:59N 38°37' E 015°19'510.5
2018-Feb-18 08:30N 38°33' E 015°24'610.0
2018-Feb-18 07:54N 38°29' E 015°30'410.1
2018-Feb-18 07:30N 38°27' E 015°34'510.3
2018-Feb-18 07:00N 38°23' E 015°38'6 9.8
2018-Feb-18 06:26N 38°19' E 015°43'510.0
2018-Feb-18 05:59N 38°15' E 015°40'510.9
2018-Feb-18 05:30N 38°11' E 015°37'5 9.9
2018-Feb-18 05:00N 38°06' E 015°36'510.2
2018-Feb-18 04:30N 38°01' E 015°35'510.4
2018-Feb-18 04:00N 37°56' E 015°38'510.2
2018-Feb-18 03:30N 37°53' E 015°43'510.2
2018-Feb-18 03:00N 37°51' E 015°49'510.0
2018-Feb-18 02:29N 37°48' E 015°55'6 9.8
2018-Feb-18 01:50N 37°46' E 016°02'  
2018-Feb-13 20:15N 32°57' E 034°35'2 9.7
2018-Feb-13 20:00N 32°57' E 034°38'5 9.8
2018-Feb-13 19:29N 32°56' E 034°44'5 9.8
2018-Feb-13 19:00N 32°55' E 034°50'5 9.5
2018-Feb-13 18:30N 32°54' E 034°55'  
2018-Feb-11 06:23N 32°52' E 035°00'2 4.6
2018-Feb-11 05:57N 32°53' E 035°01'0 0.0
2018-Feb-11 03:18N 32°53' E 035°01'0 0.0
2018-Feb-11 02:58N 32°53' E 035°01'0 0.0
2018-Feb-11 02:27N 32°53' E 035°01'0 0.0
2018-Feb-10 23:15N 32°53' E 035°01'0 0.0
2018-Feb-10 23:00N 32°53' E 035°01'0 0.0
2018-Feb-10 14:21N 32°53' E 035°01'0 0.0
2018-Feb-10 12:54N 32°53' E 035°01'0 0.0
2018-Feb-10 05:21N 32°53' E 035°01'0 0.0
2018-Feb-10 04:18N 32°53' E 035°01'0 0.0
2018-Feb-09 23:37N 32°53' E 035°01'0 0.0
2018-Feb-09 22:42N 32°53' E 035°01'  
Track history (hours):
 
Tides and Currents Weather Stations Pressure Air Temp Water Temp Dewpoint Dewpoint Depression Visibility Wind Speed Wind Dir Waves Ship Positions

YM Neptune

Last reported at 2018-Feb-18 09:24 UTC. Time now 2018-Feb-18 20:24 UTC.
Position N 38°40' E 015°15'.

Length 119 m; draft 6.3 m.

Type: Ship (hazmat cat A). MMSI: 249813000.

Date/timePositionNaut miles runAvg speedWind from/ knotsBaromVisibWave heightAir tempDewpointWater temp
2018-Feb-18 09:24N 38°40' E 015°15'510.9
2018-Feb-18 08:59N 38°37' E 015°19'510.5
2018-Feb-18 08:30N 38°33' E 015°24'610.0
2018-Feb-18 07:54N 38°29' E 015°30'410.1
2018-Feb-18 07:30N 38°27' E 015°34'510.3
2018-Feb-18 07:00N 38°23' E 015°38'6 9.8
2018-Feb-18 06:26N 38°19' E 015°43'510.0
2018-Feb-18 05:59N 38°15' E 015°40'510.9
2018-Feb-18 05:30N 38°11' E 015°37'5 9.9
2018-Feb-18 05:00N 38°06' E 015°36'510.2
2018-Feb-18 04:30N 38°01' E 015°35'510.4
2018-Feb-18 04:00N 37°56' E 015°38'510.2
2018-Feb-18 03:30N 37°53' E 015°43'510.2
2018-Feb-18 03:00N 37°51' E 015°49'510.0
2018-Feb-18 02:29N 37°48' E 015°55'6 9.8
2018-Feb-18 01:50N 37°46' E 016°02'  
2018-Feb-13 20:15N 32°57' E 034°35'2 9.7
2018-Feb-13 20:00N 32°57' E 034°38'5 9.8
2018-Feb-13 19:29N 32°56' E 034°44'5 9.8
2018-Feb-13 19:00N 32°55' E 034°50'5 9.5
2018-Feb-13 18:30N 32°54' E 034°55'  
2018-Feb-11 06:23N 32°52' E 035°00'2 4.6
2018-Feb-11 05:57N 32°53' E 035°01'0 0.0
2018-Feb-11 03:18N 32°53' E 035°01'0 0.0
2018-Feb-11 02:58N 32°53' E 035°01'0 0.0
2018-Feb-11 02:27N 32°53' E 035°01'0 0.0
2018-Feb-10 23:15N 32°53' E 035°01'0 0.0
2018-Feb-10 23:00N 32°53' E 035°01'0 0.0
2018-Feb-10 14:21N 32°53' E 035°01'0 0.0
2018-Feb-10 12:54N 32°53' E 035°01'0 0.0
2018-Feb-10 05:21N 32°53' E 035°01'0 0.0
2018-Feb-10 04:18N 32°53' E 035°01'0 0.0
2018-Feb-09 23:37N 32°53' E 035°01'0 0.0
2018-Feb-09 22:42N 32°53' E 035°01'  

Dump ship's entire track history